Time;durP1;ratioP1;P1;durP2;ratioP2;P2;SDS_P1;SDS_P2;PMS_P1;PMS_P2;Temp;Humidity;BMP_temperature;BMP_pressure;BME280_temperature;BME280_humidity;BME280_pressure;Samples;Min_cycle;Max_cycle;Signal;HPM_P1;HPM_P2
2021/03/02 00:00:24;;;;;;;6.53;3.45;;;24.30;84.70;;;;;;5073745;28;20032;-55
2021/03/02 00:02:52;;;;;;;8.25;4.03;;;24.30;84.70;;;;;;5074103;28;20163;-57
2021/03/02 00:05:20;;;;;;;9.55;4.07;;;24.30;84.70;;;;;;5074593;28;20021;-52
2021/03/02 00:07:47;;;;;;;10.70;4.80;;;24.30;84.80;;;;;;5073897;28;20025;-56
2021/03/02 00:10:14;;;;;;;6.88;3.67;;;24.30;84.60;;;;;;5073393;28;20025;-56
2021/03/02 00:12:42;;;;;;;9.65;4.50;;;24.40;84.50;;;;;;5053607;28;20037;-54
2021/03/02 00:15:13;;;;;;;9.65;4.03;;;24.40;84.20;;;;;;5053256;28;20163;-58
2021/03/02 00:17:52;;;;;;;9.27;4.00;;;24.40;84.00;;;;;;5053284;28;20450;-59
2021/03/02 00:20:23;;;;;;;12.30;4.25;;;24.40;83.70;;;;;;5053552;28;20123;-55
2021/03/02 00:23:07;;;;;;;12.35;4.18;;;24.50;83.90;;;;;;5053915;28;20391;-57
2021/03/02 00:25:38;;;;;;;9.68;3.92;;;24.50;83.40;;;;;;5053530;28;20116;-59
2021/03/02 00:28:10;;;;;;;13.50;4.37;;;24.50;83.10;;;;;;5053683;28;20029;-57
2021/03/02 00:30:39;;;;;;;9.10;3.88;;;24.60;82.30;;;;;;5052016;28;20033;-54
2021/03/02 00:33:09;;;;;;;11.07;4.35;;;24.60;83.40;;;;;;5052916;28;20041;-56
2021/03/02 00:35:37;;;;;;;13.02;3.63;;;24.70;83.20;;;;;;5053111;28;20045;-58
2021/03/02 00:38:04;;;;;;;9.70;4.22;;;24.70;81.80;;;;;;5072789;28;20025;-56
2021/03/02 00:40:32;;;;;;;9.32;4.07;;;24.80;82.40;;;;;;5072958;28;20028;-58
2021/03/02 00:42:59;;;;;;;8.75;3.63;;;24.90;82.00;;;;;;5072922;28;20067;-56
2021/03/02 00:45:27;;;;;;;11.10;4.05;;;24.90;81.40;;;;;;5073018;28;20031;-59
2021/03/02 00:47:55;;;;;;;9.25;3.30;;;25.00;81.70;;;;;;5073316;28;20412;-56
2021/03/02 00:50:26;;;;;;;10.38;3.95;;;25.10;81.50;;;;;;5072955;28;20021;-51
2021/03/02 00:52:54;;;;;;;16.00;3.72;;;25.10;79.30;;;;;;5073171;28;20115;-55
2021/03/02 00:55:21;;;;;;;11.52;4.22;;;25.20;79.50;;;;;;5072568;28;20109;-54
2021/03/02 00:57:49;;;;;;;11.32;4.07;;;25.20;79.80;;;;;;5072689;28;20135;-56
2021/03/02 01:00:17;;;;;;;9.15;3.65;;;25.20;79.40;;;;;;5072723;28;20075;-57
2021/03/02 01:02:53;;;;;;;10.15;3.78;;;25.30;79.40;;;;;;5072905;28;20024;-57
2021/03/02 01:08:11;;;;;;;7.78;3.78;;;25.30;79.50;;;;;;5055977;28;20020;-59
2021/03/02 01:10:44;;;;;;;9.77;3.50;;;25.40;79.50;;;;;;5064983;28;20032;-56
2021/03/02 01:13:15;;;;;;;14.43;4.32;;;25.50;78.60;;;;;;5068427;28;20151;-62
2021/03/02 01:15:42;;;;;;;10.50;3.83;;;25.50;79.00;;;;;;5070267;28;20036;-53
2021/03/02 01:18:35;;;;;;;17.13;4.13;;;25.60;77.30;;;;;;5069628;28;20046;-60
2021/03/02 01:21:00;;;;;;;10.80;4.05;;;25.60;77.30;;;;;;5065644;28;20055;-57
2021/03/02 01:23:32;;;;;;;7.25;3.28;;;25.60;77.20;;;;;;5065573;28;20056;-59
2021/03/02 01:26:02;;;;;;;10.73;3.55;;;25.70;76.00;;;;;;5069284;28;20510;-55
2021/03/02 01:28:30;;;;;;;8.77;3.33;;;25.70;77.30;;;;;;5067388;28;20035;-56
2021/03/02 01:30:58;;;;;;;12.40;4.05;;;25.80;75.80;;;;;;5068280;28;20054;-58
2021/03/02 01:33:26;;;;;;;10.20;3.95;;;25.90;75.20;;;;;;5068797;28;20040;-55
2021/03/02 01:35:54;;;;;;;17.55;4.75;;;25.90;76.80;;;;;;5068599;28;20158;-55
2021/03/02 01:38:21;;;;;;;14.13;3.90;;;26.00;75.50;;;;;;5065317;28;20036;-54
2021/03/02 01:40:49;;;;;;;9.45;3.72;;;26.00;75.80;;;;;;5065879;28;20029;-56
2021/03/02 01:43:16;;;;;;;9.43;3.83;;;26.10;76.40;;;;;;5068601;28;20035;-57
2021/03/02 01:45:43;;;;;;;9.23;3.60;;;26.10;77.10;;;;;;5068089;28;20024;-57
2021/03/02 01:48:11;;;;;;;9.13;3.83;;;26.10;75.60;;;;;;5068812;28;20028;-55
2021/03/02 01:50:39;;;;;;;11.23;4.22;;;26.20;76.10;;;;;;5064404;28;20490;-57
2021/03/02 01:53:06;;;;;;;10.23;3.80;;;26.20;76.40;;;;;;5068004;28;20036;-60
2021/03/02 01:55:33;;;;;;;10.27;3.95;;;26.30;74.00;;;;;;5067648;28;20154;-64
2021/03/02 01:58:01;;;;;;;9.63;3.85;;;26.30;76.30;;;;;;5067376;28;20032;-60
2021/03/02 02:00:35;;;;;;;8.73;3.58;;;26.40;75.80;;;;;;5064268;28;20024;-59
2021/03/02 02:03:13;;;;;;;9.90;3.45;;;26.40;74.80;;;;;;5068932;28;20078;-57
2021/03/02 02:06:27;;;;;;;9.23;3.58;;;26.50;74.50;;;;;;5066582;28;20060;-58
2021/03/02 02:09:13;;;;;;;13.93;4.32;;;26.50;74.00;;;;;;5057553;28;20033;-52
2021/03/02 02:11:52;;;;;;;10.88;3.10;;;26.50;73.70;;;;;;5065354;28;20120;-53
2021/03/02 02:14:27;;;;;;;11.05;3.83;;;26.50;73.60;;;;;;5069003;28;20032;-59
2021/03/02 02:17:03;;;;;;;12.35;4.45;;;26.50;75.30;;;;;;5067648;28;20044;-58
2021/03/02 02:19:49;;;;;;;10.25;4.03;;;26.50;74.10;;;;;;5063220;28;20025;-51
2021/03/02 02:22:44;;;;;;;7.88;3.40;;;26.50;74.20;;;;;;5067798;28;20102;-52
2021/03/02 02:25:47;;;;;;;9.00;3.58;;;26.50;73.70;;;;;;5068463;28;20020;-58
2021/03/02 02:28:16;;;;;;;10.10;3.47;;;26.50;73.90;;;;;;5066500;28;20028;-54
2021/03/02 02:30:47;;;;;;;9.20;3.92;;;26.50;73.00;;;;;;5062250;28;20471;-56
2021/03/02 02:33:16;;;;;;;12.48;3.70;;;26.50;74.70;;;;;;5066363;28;20044;-58
2021/03/02 02:35:46;;;;;;;11.48;4.15;;;26.50;74.30;;;;;;5066095;28;20063;-56
2021/03/02 02:38:19;;;;;;;9.00;3.78;;;26.50;73.70;;;;;;5066188;28;20128;-55
2021/03/02 02:40:48;;;;;;;13.23;4.55;;;26.50;74.80;;;;;;5065720;28;20378;-54
2021/03/02 02:43:18;;;;;;;;;;;26.50;73.30;;;;;;5068675;28;20016;-57
2021/03/02 02:45:52;;;;;;;11.25;3.78;;;26.50;74.70;;;;;;5067418;28;19911;-55
2021/03/02 02:48:21;;;;;;;9.98;4.07;;;26.50;75.10;;;;;;5066087;28;20411;-52
2021/03/02 02:50:54;;;;;;;14.10;4.15;;;26.50;73.20;;;;;;5066155;28;20513;-55
2021/03/02 02:53:21;;;;;;;10.35;3.63;;;26.50;74.40;;;;;;5065729;28;20036;-57
2021/03/02 02:55:56;;;;;;;10.80;3.80;;;26.50;73.30;;;;;;5066974;28;20048;-60
2021/03/02 02:58:53;;;;;;;11.27;3.30;;;26.50;73.90;;;;;;5065790;28;20033;-54
2021/03/02 03:01:22;;;;;;;10.48;3.13;;;26.50;73.60;;;;;;5050182;28;20062;-58
2021/03/02 03:03:51;;;;;;;10.98;3.67;;;26.50;73.50;;;;;;5067833;28;20033;-56
2021/03/02 03:06:25;;;;;;;8.65;3.25;;;26.50;75.50;;;;;;5066550;28;20340;-58
2021/03/02 03:08:54;;;;;;;8.88;3.63;;;26.50;73.30;;;;;;5063061;28;20044;-58
2021/03/02 03:11:28;;;;;;;7.70;3.10;;;26.50;73.70;;;;;;5067158;28;20376;-56
2021/03/02 03:13:56;;;;;;;8.98;3.25;;;26.50;74.30;;;;;;5066961;28;20391;-55
2021/03/02 03:16:25;;;;;;;7.28;2.72;;;26.50;73.70;;;;;;5066754;28;20044;-54
2021/03/02 03:18:58;;;;;;;12.27;3.55;;;26.50;73.00;;;;;;5063962;28;20032;-58
2021/03/02 03:21:26;;;;;;;10.75;3.70;;;26.40;74.70;;;;;;5070899;28;20092;-53
2021/03/02 03:23:55;;;;;;;9.82;3.58;;;26.40;73.80;;;;;;5070469;28;20498;-58
2021/03/02 03:26:25;;;;;;;14.15;3.78;;;26.40;75.00;;;;;;5068818;28;20028;-57
2021/03/02 03:28:56;;;;;;;8.18;3.13;;;26.30;72.60;;;;;;5070864;28;20032;-58
2021/03/02 03:31:23;;;;;;;9.98;3.42;;;26.40;74.50;;;;;;5070299;28;20029;-56
2021/03/02 03:33:53;;;;;;;8.57;2.80;;;26.30;74.20;;;;;;5069716;28;20384;-56
2021/03/02 03:36:21;;;;;;;7.93;3.28;;;26.20;75.10;;;;;;5069470;28;20037;-57
2021/03/02 03:38:48;;;;;;;10.30;3.17;;;26.20;74.50;;;;;;5070140;28;20094;-54
2021/03/02 03:41:16;;;;;;;8.88;3.03;;;26.20;74.30;;;;;;5069295;28;20024;-59
2021/03/02 03:43:46;;;;;;;8.60;3.65;;;26.20;74.10;;;;;;5066226;28;20025;-58
2021/03/02 03:46:16;;;;;;;9.38;3.00;;;26.20;75.20;;;;;;5068269;28;20054;-51
2021/03/02 03:48:47;;;;;;;10.00;3.42;;;26.20;71.90;;;;;;5070260;28;20021;-56
2021/03/02 03:51:15;;;;;;;8.25;3.20;;;26.20;74.80;;;;;;5070526;28;20024;-55
2021/03/02 03:53:44;;;;;;;8.18;2.60;;;26.20;74.40;;;;;;5069270;28;20036;-57
2021/03/02 03:56:15;;;;;;;7.10;2.85;;;26.20;75.20;;;;;;5068618;28;20457;-55
2021/03/02 03:58:44;;;;;;;10.88;3.15;;;26.10;74.10;;;;;;5070721;28;20146;-59
2021/03/02 04:01:12;;;;;;;6.03;2.70;;;26.10;74.90;;;;;;5070252;28;20047;-59
2021/03/02 04:03:41;;;;;;;7.35;3.00;;;26.10;75.00;;;;;;5070347;28;20037;-57
2021/03/02 04:06:08;;;;;;;7.82;2.75;;;26.10;75.40;;;;;;5073168;28;20059;-57
2021/03/02 04:08:37;;;;;;;9.75;2.88;;;26.10;74.50;;;;;;5074019;28;20079;-57
2021/03/02 04:11:08;;;;;;;7.38;3.20;;;26.10;74.90;;;;;;5073974;28;20029;-58
2021/03/02 04:13:35;;;;;;;8.60;2.90;;;26.10;75.20;;;;;;5073217;28;20042;-56
2021/03/02 04:16:03;;;;;;;8.65;3.70;;;26.10;74.70;;;;;;5073866;28;20056;-60
2021/03/02 04:18:31;;;;;;;7.47;2.85;;;26.00;74.60;;;;;;5073939;28;20029;-57
2021/03/02 04:21:01;;;;;;;12.60;3.17;;;26.00;75.00;;;;;;5073119;28;20032;-58
2021/03/02 04:23:28;;;;;;;9.25;2.88;;;26.00;73.80;;;;;;5073078;28;20393;-60
2021/03/02 04:25:56;;;;;;;9.13;3.17;;;25.90;74.90;;;;;;5074155;28;20179;-57
2021/03/02 04:28:23;;;;;;;7.68;3.15;;;25.90;74.10;;;;;;5073938;28;20025;-57
2021/03/02 04:30:52;;;;;;;7.40;2.85;;;25.90;74.00;;;;;;5065644;28;20110;-58
2021/03/02 04:33:19;;;;;;;8.18;2.75;;;25.90;74.40;;;;;;5066506;28;20365;-55
2021/03/02 04:35:46;;;;;;;7.85;2.60;;;25.90;75.10;;;;;;5070209;28;20044;-57
2021/03/02 04:38:14;;;;;;;6.22;2.80;;;25.90;73.90;;;;;;5069376;28;20478;-55
2021/03/02 04:40:41;;;;;;;7.35;2.25;;;25.90;74.20;;;;;;5068345;28;20036;-61
2021/03/02 04:43:09;;;;;;;7.22;2.67;;;25.90;73.80;;;;;;5069962;28;20039;-58
2021/03/02 04:45:36;;;;;;;8.65;2.95;;;25.90;74.00;;;;;;5069484;28;20376;-54
2021/03/02 04:48:06;;;;;;;8.95;2.90;;;25.90;72.70;;;;;;5068005;28;20470;-59
2021/03/02 04:50:34;;;;;;;8.15;2.70;;;25.90;74.20;;;;;;5069147;28;20048;-58
2021/03/02 04:53:01;;;;;;;12.40;3.38;;;25.90;74.20;;;;;;5072258;28;20064;-60
2021/03/02 04:55:28;;;;;;;11.55;3.22;;;25.70;58.10;;;;;;5072720;28;20017;-60
2021/03/02 04:57:56;;;;;;;18.85;6.28;;;25.00;62.50;;;;;;5072945;28;20081;-55
2021/03/02 05:00:23;;;;;;;12.32;5.95;;;24.90;58.00;;;;;;5073207;28;20020;-63
2021/03/02 05:02:51;;;;;;;12.93;5.68;;;25.20;73.80;;;;;;5073180;28;20025;-51
2021/03/02 05:05:18;;;;;;;14.68;4.03;;;25.00;73.00;;;;;;5073691;28;20052;-58
2021/03/02 05:07:46;;;;;;;18.48;3.80;;;25.10;71.90;;;;;;5074142;28;20498;-53
2021/03/02 05:10:14;;;;;;;15.88;4.93;;;24.90;59.00;;;;;;5073035;28;20309;-57
2021/03/02 05:12:41;;;;;;;9.32;5.35;;;24.70;70.10;;;;;;5072607;28;20060;-62
2021/03/02 05:15:09;;;;;;;10.57;5.45;;;25.10;73.30;;;;;;5069805;28;20025;-60
2021/03/02 05:17:37;;;;;;;12.80;4.97;;;25.20;72.80;;;;;;5071641;28;20375;-62
2021/03/02 05:20:05;;;;;;;12.82;4.40;;;25.20;70.50;;;;;;5072236;28;20033;-64
2021/03/02 05:22:34;;;;;;;12.60;3.88;;;25.00;63.40;;;;;;5072894;28;20111;-61
2021/03/02 05:25:01;;;;;;;15.05;5.20;;;25.00;70.30;;;;;;5072544;28;20356;-61
2021/03/02 05:27:28;;;;;;;20.77;5.55;;;24.70;66.00;;;;;;5072587;28;20468;-60
2021/03/02 05:29:56;;;;;;;22.33;5.45;;;24.80;60.00;;;;;;5071566;28;20507;-60
2021/03/02 05:32:23;;;;;;;15.43;5.47;;;25.00;67.60;;;;;;5072458;28;20067;-63
2021/03/02 05:34:51;;;;;;;11.90;6.65;;;25.10;67.50;;;;;;5072216;28;20117;-62
2021/03/02 05:37:18;;;;;;;15.07;7.93;;;25.10;58.00;;;;;;5071903;28;20028;-62
2021/03/02 05:39:45;;;;;;;12.77;4.20;;;24.70;59.20;;;;;;5071434;28;20023;-60
2021/03/02 05:42:13;;;;;;;22.35;6.70;;;24.70;56.20;;;;;;5071591;28;20024;-62
2021/03/02 05:44:40;;;;;;;17.08;5.47;;;24.80;59.00;;;;;;5071857;28;20367;-59
2021/03/02 05:47:09;;;;;;;17.13;6.82;;;24.60;59.20;;;;;;5072017;28;20020;-62
2021/03/02 05:49:37;;;;;;;11.05;5.53;;;24.50;61.50;;;;;;5071879;28;20113;-62
2021/03/02 05:52:04;;;;;;;19.20;5.82;;;24.50;71.60;;;;;;5072131;28;20040;-64
2021/03/02 05:54:32;;;;;;;14.77;4.60;;;24.60;56.60;;;;;;5072127;28;20124;-62
2021/03/02 05:57:01;;;;;;;21.65;5.75;;;24.40;59.70;;;;;;5071876;28;20023;-63
2021/03/02 05:59:29;;;;;;;14.40;4.35;;;24.60;58.60;;;;;;5071555;28;20021;-61
2021/03/02 06:01:59;;;;;;;18.15;6.00;;;24.40;62.70;;;;;;5071771;28;20123;-60
2021/03/02 06:04:27;;;;;;;15.50;5.07;;;24.50;65.80;;;;;;5071581;28;20331;-64
2021/03/02 06:07:05;;;;;;;15.40;5.97;;;24.70;57.80;;;;;;5070774;28;20025;-60
2021/03/02 06:09:33;;;;;;;18.85;5.95;;;24.70;61.60;;;;;;5056821;28;20368;-62
2021/03/02 06:12:05;;;;;;;16.45;3.42;;;24.50;58.10;;;;;;5071907;28;20418;-64
2021/03/02 06:14:36;;;;;;;14.35;4.45;;;24.40;62.10;;;;;;5071739;28;20459;-63
2021/03/02 06:17:05;;;;;;;19.77;5.30;;;24.50;67.30;;;;;;5071752;28;20032;-61
2021/03/02 06:19:46;;;;;;;16.88;4.80;;;24.50;56.80;;;;;;5071928;28;20039;-63
2021/03/02 06:22:39;;;;;;;27.40;8.77;;;24.20;59.00;;;;;;5071596;28;20482;-62
2021/03/02 06:25:26;;;;;;;24.67;6.70;;;24.30;68.40;;;;;;5070905;28;20318;-61
2021/03/02 06:27:54;;;;;;;14.88;4.65;;;24.40;61.70;;;;;;5069947;28;20044;-62
2021/03/02 06:30:22;;;;;;;15.15;5.63;;;24.20;57.80;;;;;;5069673;28;20028;-62
2021/03/02 06:32:56;;;;;;;17.20;4.43;;;24.40;59.80;;;;;;5071276;28;20039;-63
2021/03/02 06:35:33;;;;;;;25.30;5.97;;;24.60;63.10;;;;;;5071097;28;20055;-62
2021/03/02 06:38:03;;;;;;;16.50;4.75;;;24.30;59.60;;;;;;5071681;28;20036;-61
2021/03/02 06:40:38;;;;;;;18.20;4.43;;;24.50;61.50;;;;;;5071659;28;20028;-60
2021/03/02 06:43:06;;;;;;;9.68;4.03;;;24.60;68.00;;;;;;5071431;28;20025;-61
2021/03/02 06:45:33;;;;;;;16.30;4.72;;;24.70;65.10;;;;;;5071297;28;20035;-63
2021/03/02 06:48:05;;;;;;;12.10;3.47;;;24.60;65.90;;;;;;5071488;28;20033;-61
2021/03/02 06:50:38;;;;;;;14.02;4.22;;;24.50;58.10;;;;;;5071441;28;20035;-60
2021/03/02 06:53:12;;;;;;;14.05;4.43;;;24.30;64.30;;;;;;5070962;28;20072;-60
2021/03/02 06:55:41;;;;;;;17.65;4.63;;;24.40;64.50;;;;;;5071579;28;20028;-62
2021/03/02 06:58:34;;;;;;;15.32;3.58;;;24.20;65.50;;;;;;5071130;28;20016;-60
2021/03/02 07:01:01;;;;;;;11.60;4.00;;;24.20;57.70;;;;;;5069054;28;20036;-62
2021/03/02 07:03:30;;;;;;;11.73;3.85;;;24.50;61.30;;;;;;5071419;28;20025;-62
2021/03/02 07:06:07;;;;;;;16.60;3.97;;;24.40;66.00;;;;;;5071193;28;20024;-63
2021/03/02 07:08:38;;;;;;;15.90;4.22;;;24.10;59.40;;;;;;5070147;28;20028;-63
2021/03/02 07:11:05;;;;;;;14.43;4.07;;;24.00;65.30;;;;;;5071437;28;20134;-62
2021/03/02 07:13:34;;;;;;;20.83;4.45;;;24.00;68.30;;;;;;5071105;28;20118;-61
2021/03/02 07:16:02;;;;;;;11.57;4.15;;;23.70;62.20;;;;;;5071568;28;20055;-63
2021/03/02 07:18:31;;;;;;;14.40;4.68;;;23.90;63.20;;;;;;5071319;28;20024;-59
2021/03/02 07:21:00;;;;;;;17.25;3.15;;;23.90;60.50;;;;;;5071161;28;20020;-63
2021/03/02 07:23:33;;;;;;;17.85;4.63;;;23.80;68.00;;;;;;5071119;28;20392;-63
2021/03/02 07:26:02;;;;;;;15.98;3.67;;;23.90;65.60;;;;;;5071566;28;20104;-62
2021/03/02 07:28:35;;;;;;;17.67;4.82;;;23.90;61.40;;;;;;5070602;28;20463;-60
2021/03/02 09:22:06;;;;;;;40.88;10.55;;;24.70;73.00;;;;;;3947011;28;20050;-57
2021/03/02 09:24:45;;;;;;;44.65;11.95;;;24.70;74.00;;;;;;4991387;28;20028;-53
2021/03/02 09:27:18;;;;;;;31.75;10.85;;;24.70;72.90;;;;;;4992729;28;20476;-61
2021/03/02 09:29:51;;;;;;;33.70;9.93;;;24.70;72.20;;;;;;4992201;28;20045;-57
2021/03/02 09:32:25;;;;;;;23.58;8.75;;;24.70;71.90;;;;;;4987170;28;20045;-55
2021/03/02 09:34:59;;;;;;;32.90;9.60;;;24.60;71.60;;;;;;4993645;28;20034;-54
2021/03/02 09:37:28;;;;;;;27.00;8.80;;;24.60;72.10;;;;;;4992416;28;20038;-53
2021/03/02 09:40:02;;;;;;;26.15;8.48;;;24.60;71.90;;;;;;4993868;28;20049;-53
2021/03/02 09:42:32;;;;;;;33.40;9.13;;;24.60;71.80;;;;;;4990734;28;20102;-55
2021/03/02 09:45:18;;;;;;;25.30;8.18;;;24.60;71.60;;;;;;4991931;28;20030;-50
2021/03/02 09:47:47;;;;;;;32.88;8.80;;;24.60;72.00;;;;;;4992450;28;20026;-58
2021/03/02 09:50:16;;;;;;;29.38;9.20;;;24.50;72.50;;;;;;4991842;28;20109;-54
2021/03/02 09:52:45;;;;;;;34.40;10.00;;;24.60;72.90;;;;;;4990562;28;20034;-56
2021/03/02 09:55:26;;;;;;;32.10;10.73;;;24.50;73.10;;;;;;4993313;28;20104;-54
2021/03/02 09:58:20;;;;;;;28.10;9.20;;;24.50;73.30;;;;;;4990439;28;20420;-54
2021/03/02 10:00:48;;;;;;;26.80;8.70;;;24.50;73.10;;;;;;4988599;28;20025;-52
2021/03/02 10:03:17;;;;;;;26.75;8.63;;;24.50;72.80;;;;;;4989627;28;20113;-56
2021/03/02 10:05:56;;;;;;;26.50;8.70;;;24.50;67.30;;;;;;4992470;28;20113;-50
2021/03/02 10:08:37;;;;;;;29.38;8.93;;;24.50;73.50;;;;;;4992066;28;20030;-55
2021/03/02 10:11:13;;;;;;;27.65;9.13;;;24.50;73.60;;;;;;4985158;28;20487;-55
2021/03/02 10:14:07;;;;;;;34.42;8.18;;;24.50;73.70;;;;;;4992266;28;20034;-52
2021/03/02 10:16:40;;;;;;;28.35;9.50;;;24.40;73.50;;;;;;4993850;28;20122;-59
2021/03/02 10:19:21;;;;;;;24.33;8.75;;;24.40;73.40;;;;;;4992267;28;20109;-58
2021/03/02 10:21:59;;;;;;;24.92;7.93;;;24.40;73.20;;;;;;4986631;28;20097;-56
2021/03/02 10:24:42;;;;;;;32.47;8.88;;;24.40;72.90;;;;;;4990222;28;20026;-49
2021/03/02 10:27:15;;;;;;;28.80;9.02;;;24.40;72.90;;;;;;4992246;28;20089;-53
2021/03/02 10:29:47;;;;;;;24.08;8.45;;;24.40;73.10;;;;;;4991016;28;20489;-52
2021/03/02 10:32:15;;;;;;;27.15;7.70;;;24.40;72.50;;;;;;4986497;28;20062;-55
2021/03/02 10:34:43;;;;;;;27.67;7.88;;;24.40;72.50;;;;;;4991454;28;20042;-54
2021/03/02 10:37:14;;;;;;;24.48;7.38;;;24.40;72.60;;;;;;4991318;28;20508;-56
2021/03/02 10:39:41;;;;;;;21.85;7.95;;;24.40;72.70;;;;;;4990395;28;20424;-58
2021/03/02 10:42:12;;;;;;;21.58;8.13;;;24.40;72.70;;;;;;4989775;28;20053;-51
2021/03/02 10:44:40;;;;;;;25.40;7.78;;;24.30;72.50;;;;;;4991206;28;20019;-55
2021/03/02 10:47:07;;;;;;;27.33;7.68;;;24.30;72.30;;;;;;4993072;28;20033;-53
2021/03/02 10:49:35;;;;;;;22.90;7.13;;;24.30;72.30;;;;;;4992871;28;20202;-58
2021/03/02 10:52:02;;;;;;;22.15;8.10;;;24.30;72.40;;;;;;4992470;28;20022;-51
2021/03/02 10:54:35;;;;;;;22.15;6.80;;;24.30;72.30;;;;;;4993310;28;20118;-51
2021/03/02 10:57:07;;;;;;;21.13;7.05;;;24.30;72.20;;;;;;4993462;28;20073;-52
2021/03/02 10:59:34;;;;;;;19.40;7.05;;;24.30;72.10;;;;;;4991484;28;20032;-55
2021/03/02 11:02:02;;;;;;;17.48;6.57;;;24.30;72.00;;;;;;4992695;28;20662;-53
2021/03/02 11:04:32;;;;;;;22.77;7.38;;;24.30;72.10;;;;;;4993274;28;20384;-55
2021/03/02 11:07:03;;;;;;;20.00;7.32;;;24.30;72.20;;;;;;4993148;28;20037;-53
2021/03/02 11:09:34;;;;;;;22.15;7.28;;;24.30;72.20;;;;;;4992572;28;20022;-57
2021/03/02 11:12:09;;;;;;;24.48;6.47;;;24.30;72.20;;;;;;4989960;28;20030;-52
2021/03/02 11:14:37;;;;;;;18.15;6.65;;;24.30;72.20;;;;;;4991336;28;20057;-60
2021/03/02 11:17:05;;;;;;;21.65;6.13;;;24.20;72.20;;;;;;4996216;28;20543;-52
2021/03/02 11:19:32;;;;;;;17.90;5.90;;;24.20;72.20;;;;;;4989915;28;20031;-59
2021/03/02 11:22:00;;;;;;;18.48;6.90;;;24.20;72.20;;;;;;4995574;28;20061;-53
2021/03/02 11:24:27;;;;;;;16.88;6.55;;;24.20;72.10;;;;;;4996252;28;20018;-54
2021/03/02 11:26:55;;;;;;;22.08;6.88;;;24.20;72.10;;;;;;4995806;28;20357;-58
2021/03/02 11:29:22;;;;;;;19.77;6.88;;;24.20;72.10;;;;;;4996838;28;20022;-54
2021/03/02 11:31:50;;;;;;;18.35;5.70;;;24.20;72.00;;;;;;4996106;28;20027;-54
2021/03/02 11:34:18;;;;;;;15.30;5.32;;;24.20;72.20;;;;;;4996295;28;20102;-51
2021/03/02 11:36:45;;;;;;;18.17;5.78;;;24.20;72.10;;;;;;4995092;28;20061;-50
2021/03/02 11:39:14;;;;;;;21.73;6.72;;;24.20;71.90;;;;;;4995965;28;20035;-47
2021/03/02 11:41:41;;;;;;;19.88;6.85;;;24.20;72.10;;;;;;4995560;28;20030;-61
2021/03/02 11:44:08;;;;;;;20.70;6.38;;;24.20;72.10;;;;;;4995713;28;20066;-59
2021/03/02 11:46:36;;;;;;;14.13;5.18;;;24.20;72.10;;;;;;4995958;28;20029;-57
2021/03/02 11:49:03;;;;;;;14.82;5.32;;;24.20;72.10;;;;;;4995639;28;20023;-52
2021/03/02 11:51:32;;;;;;;17.63;5.60;;;24.20;72.20;;;;;;4995708;28;20325;-61
2021/03/02 11:53:59;;;;;;;17.48;6.32;;;24.10;72.10;;;;;;4994773;28;20089;-60
2021/03/02 11:56:27;;;;;;;17.35;5.47;;;24.10;72.30;;;;;;4993908;28;20100;-58
2021/03/02 11:58:54;;;;;;;18.20;5.72;;;24.10;72.20;;;;;;4994388;28;20473;-64
2021/03/02 12:01:21;;;;;;;14.90;4.90;;;24.10;72.00;;;;;;4991981;28;20038;-52
2021/03/02 12:03:49;;;;;;;18.73;5.03;;;24.10;72.10;;;;;;4994281;28;20034;-60
2021/03/02 12:06:16;;;;;;;15.32;4.88;;;24.10;72.20;;;;;;4995445;28;20469;-55
2021/03/02 12:08:43;;;;;;;18.35;5.15;;;24.10;72.10;;;;;;4993977;28;20042;-54
2021/03/02 12:11:11;;;;;;;12.98;4.55;;;24.10;72.10;;;;;;4994986;28;20460;-56
2021/03/02 12:13:38;;;;;;;16.35;4.97;;;24.10;72.10;;;;;;4994669;28;20326;-55
2021/03/02 12:16:06;;;;;;;23.50;5.35;;;24.10;72.20;;;;;;4994545;28;20073;-48
2021/03/02 12:18:34;;;;;;;11.70;4.75;;;24.10;72.10;;;;;;4994875;28;20022;-52
2021/03/02 12:21:01;;;;;;;15.75;5.60;;;24.10;72.20;;;;;;4994886;28;20492;-50
2021/03/02 12:23:29;;;;;;;14.30;4.78;;;24.10;72.30;;;;;;4994467;28;20082;-57
2021/03/02 12:25:56;;;;;;;13.00;5.35;;;24.10;72.30;;;;;;4993940;28;20123;-60
2021/03/02 12:28:23;;;;;;;13.27;4.63;;;24.10;72.40;;;;;;4993121;28;20532;-58
2021/03/02 12:30:51;;;;;;;14.75;5.05;;;24.10;73.00;;;;;;4994285;28;20104;-61
2021/03/02 12:33:18;;;;;;;18.90;4.93;;;24.10;73.70;;;;;;4994329;28;20129;-59
2021/03/02 12:35:45;;;;;;;16.90;4.75;;;24.10;73.20;;;;;;4994666;28;20027;-56
2021/03/02 12:38:13;;;;;;;16.13;5.55;;;24.10;72.80;;;;;;4994337;28;20114;-56
2021/03/02 12:40:40;;;;;;;9.48;3.95;;;24.10;72.80;;;;;;4994792;28;20023;-54
2021/03/02 12:43:07;;;;;;;14.32;4.78;;;24.10;72.80;;;;;;4994774;28;20045;-63
2021/03/02 12:45:35;;;;;;;11.70;4.25;;;24.10;72.70;;;;;;4994758;28;20031;-61
2021/03/02 12:48:04;;;;;;;13.02;4.40;;;24.00;72.60;;;;;;4994317;28;20042;-62
2021/03/02 12:50:31;;;;;;;16.40;4.47;;;24.00;72.70;;;;;;4994617;28;20104;-56
2021/03/02 12:52:58;;;;;;;10.93;4.10;;;24.00;72.60;;;;;;4994813;28;20563;-59
2021/03/02 12:55:26;;;;;;;11.77;4.20;;;24.00;72.60;;;;;;4994783;28;20477;-59
2021/03/02 12:57:53;;;;;;;13.95;4.18;;;24.00;72.60;;;;;;4994472;28;20035;-53
2021/03/02 13:00:21;;;;;;;14.40;4.82;;;24.00;72.50;;;;;;4993658;28;20035;-59
2021/03/02 13:02:48;;;;;;;14.52;4.60;;;23.90;72.40;;;;;;4994522;28;20041;-60
2021/03/02 13:05:17;;;;;;;14.40;3.95;;;23.90;72.40;;;;;;4994086;28;20026;-56
2021/03/02 13:07:45;;;;;;;14.95;4.18;;;23.90;72.40;;;;;;4993811;28;20026;-52
2021/03/02 13:10:13;;;;;;;13.10;4.93;;;23.90;72.40;;;;;;4994342;28;20022;-62
2021/03/02 13:12:40;;;;;;;12.90;4.15;;;23.90;72.30;;;;;;4994258;28;20061;-56
2021/03/02 13:15:08;;;;;;;10.80;3.92;;;23.90;72.30;;;;;;4994128;28;20030;-52
2021/03/02 13:17:37;;;;;;;10.35;4.35;;;23.90;72.10;;;;;;4984117;28;20096;-62
2021/03/02 13:20:06;;;;;;;9.73;3.92;;;23.90;72.20;;;;;;4990670;28;20018;-58
2021/03/02 13:22:33;;;;;;;12.80;4.20;;;23.80;72.10;;;;;;4992293;28;20047;-64
2021/03/02 13:25:01;;;;;;;13.68;3.85;;;23.80;72.10;;;;;;4991572;28;20504;-57
2021/03/02 13:27:28;;;;;;;11.48;4.50;;;23.80;71.90;;;;;;4991593;28;20027;-62
2021/03/02 13:29:58;;;;;;;12.00;4.05;;;23.80;71.90;;;;;;4995064;28;20080;-64
2021/03/02 13:32:40;;;;;;;13.15;4.07;;;23.80;71.90;;;;;;4993041;28;20038;-60
2021/03/02 13:35:08;;;;;;;15.15;4.55;;;23.80;71.90;;;;;;4991557;28;20031;-64
2021/03/02 13:37:37;;;;;;;9.55;3.45;;;23.80;71.90;;;;;;4990776;28;20057;-59
2021/03/02 13:40:07;;;;;;;11.20;4.97;;;23.70;71.90;;;;;;4989114;28;20334;-62
2021/03/02 13:42:42;;;;;;;9.20;3.80;;;23.70;71.80;;;;;;4993267;28;20081;-64
2021/03/02 13:45:10;;;;;;;10.07;3.72;;;23.70;71.60;;;;;;4991879;28;20034;-63
2021/03/02 13:47:38;;;;;;;14.85;3.75;;;23.70;71.90;;;;;;4990915;28;20362;-56
2021/03/02 13:50:06;;;;;;;8.70;3.17;;;23.70;71.70;;;;;;4989048;28;20034;-65
2021/03/02 13:52:36;;;;;;;10.75;3.60;;;23.70;71.80;;;;;;4991481;28;20124;-61
2021/03/02 13:55:04;;;;;;;12.93;4.18;;;23.70;71.60;;;;;;4991682;28;20081;-62
2021/03/02 13:57:35;;;;;;;11.30;4.72;;;23.70;71.80;;;;;;4991685;28;20041;-56
2021/03/02 14:00:06;;;;;;;8.75;3.70;;;23.70;71.60;;;;;;4990110;28;20058;-60
2021/03/02 14:02:35;;;;;;;10.07;3.55;;;23.70;71.70;;;;;;4991417;28;20033;-64
2021/03/02 14:05:06;;;;;;;14.27;3.88;;;23.60;71.60;;;;;;4991535;28;20431;-64
2021/03/02 14:07:34;;;;;;;12.23;4.22;;;23.70;71.60;;;;;;4991903;28;20121;-62
2021/03/02 14:10:01;;;;;;;11.07;3.45;;;23.60;71.60;;;;;;4990046;28;20133;-55
2021/03/02 14:12:30;;;;;;;11.65;3.53;;;23.60;71.60;;;;;;4990850;28;20034;-60
2021/03/02 14:14:57;;;;;;;12.68;2.92;;;23.60;71.50;;;;;;4991746;28;20105;-63
2021/03/02 14:17:25;;;;;;;10.63;3.83;;;23.60;71.30;;;;;;4990898;28;20026;-61
2021/03/02 14:19:53;;;;;;;8.45;3.20;;;23.60;71.50;;;;;;4993437;28;20058;-62
2021/03/02 14:22:20;;;;;;;11.90;3.65;;;23.60;71.20;;;;;;4990269;28;20400;-64
2021/03/02 14:24:48;;;;;;;9.15;3.90;;;23.60;71.30;;;;;;4991260;28;20489;-59
2021/03/02 14:27:19;;;;;;;7.88;3.05;;;23.60;71.40;;;;;;4991183;28;20734;-63
2021/03/02 14:29:48;;;;;;;13.25;3.20;;;23.60;71.30;;;;;;4991504;28;20369;-63
2021/03/02 14:32:16;;;;;;;7.57;2.97;;;23.50;71.30;;;;;;4991934;28;20029;-61
2021/03/02 14:34:44;;;;;;;9.15;3.33;;;23.50;71.20;;;;;;4991467;28;20026;-62
2021/03/02 14:37:12;;;;;;;13.18;4.07;;;23.50;71.30;;;;;;4990922;28;20030;-61
2021/03/02 14:39:39;;;;;;;7.38;3.05;;;23.50;71.30;;;;;;4990046;28;20034;-60
2021/03/02 14:42:09;;;;;;;9.68;3.63;;;23.50;71.30;;;;;;4987496;28;20069;-62
2021/03/02 14:44:38;;;;;;;10.73;3.80;;;23.50;71.30;;;;;;4993823;28;20109;-65
2021/03/02 14:47:12;;;;;;;7.28;2.58;;;23.50;71.20;;;;;;4993177;28;20183;-62
2021/03/02 14:50:01;;;;;;;13.02;3.95;;;23.50;71.20;;;;;;4989659;28;20034;-63